sensor_id;sensor_type;location;lat;lon;timestamp;pressure;altitude;pressure_sealevel;temperature;humidity
42705;BME280;28342;42.594;23.414;2023-02-16T00:00:20;95675.19;;;-0.66;82.48
42705;BME280;28342;42.594;23.414;2023-02-16T00:02:47;95677.22;;;-0.68;82.48
42705;BME280;28342;42.594;23.414;2023-02-16T00:05:29;95697.41;;;-0.57;81.83
42705;BME280;28342;42.594;23.414;2023-02-16T00:07:57;95702.84;;;-0.65;82.62
42705;BME280;28342;42.594;23.414;2023-02-16T00:10:24;95679.88;;;-0.81;83.00
42705;BME280;28342;42.594;23.414;2023-02-16T00:12:55;95685.28;;;-0.76;82.77
42705;BME280;28342;42.594;23.414;2023-02-16T00:15:39;95701.25;;;-0.66;82.64
42705;BME280;28342;42.594;23.414;2023-02-16T00:18:19;95687.47;;;-0.73;82.39
42705;BME280;28342;42.594;23.414;2023-02-16T00:20:46;95702.84;;;-0.58;82.12
42705;BME280;28342;42.594;23.414;2023-02-16T00:23:12;95690.63;;;-0.65;81.87
42705;BME280;28342;42.594;23.414;2023-02-16T00:25:38;95682.47;;;-0.81;81.79
42705;BME280;28342;42.594;23.414;2023-02-16T00:28:10;95660.50;;;-0.99;82.05
42705;BME280;28342;42.594;23.414;2023-02-16T00:30:39;95688.69;;;-0.82;82.17
42705;BME280;28342;42.594;23.414;2023-02-16T00:33:16;95697.13;;;-0.87;82.28
42705;BME280;28342;42.594;23.414;2023-02-16T00:35:42;95676.56;;;-1.02;82.66
42705;BME280;28342;42.594;23.414;2023-02-16T00:38:09;95667.34;;;-1.11;82.83
42705;BME280;28342;42.594;23.414;2023-02-16T00:40:35;95683.91;;;-0.92;82.21
42705;BME280;28342;42.594;23.414;2023-02-16T00:43:01;95689.31;;;-0.87;82.01
42705;BME280;28342;42.594;23.414;2023-02-16T00:45:28;95687.13;;;-0.97;82.32
42705;BME280;28342;42.594;23.414;2023-02-16T00:47:55;95684.91;;;-0.93;82.48
42705;BME280;28342;42.594;23.414;2023-02-16T00:50:29;95665.72;;;-0.99;82.71
42705;BME280;28342;42.594;23.414;2023-02-16T00:52:56;95686.94;;;-0.95;82.69
42705;BME280;28342;42.594;23.414;2023-02-16T00:55:33;95681.34;;;-0.99;82.03
42705;BME280;28342;42.594;23.414;2023-02-16T01:01:05;95688.09;;;-0.84;81.63
42705;BME280;28342;42.594;23.414;2023-02-16T01:03:32;95682.94;;;-0.91;82.42
42705;BME280;28342;42.594;23.414;2023-02-16T01:05:58;95685.72;;;-0.86;81.82
42705;BME280;28342;42.594;23.414;2023-02-16T01:08:43;95688.91;;;-0.84;80.94
42705;BME280;28342;42.594;23.414;2023-02-16T01:11:27;95684.13;;;-0.94;81.45
42705;BME280;28342;42.594;23.414;2023-02-16T01:13:55;95670.56;;;-1.09;82.02
42705;BME280;28342;42.594;23.414;2023-02-16T01:16:32;95675.75;;;-1.09;82.24
42705;BME280;28342;42.594;23.414;2023-02-16T01:19:02;95653.78;;;-1.26;82.00
42705;BME280;28342;42.594;23.414;2023-02-16T01:21:28;95647.81;;;-1.33;82.14
42705;BME280;28342;42.594;23.414;2023-02-16T01:23:54;95638.84;;;-1.51;82.59
42705;BME280;28342;42.594;23.414;2023-02-16T01:26:20;95651.03;;;-1.38;82.70
42705;BME280;28342;42.594;23.414;2023-02-16T01:28:46;95655.22;;;-1.43;82.97
42705;BME280;28342;42.594;23.414;2023-02-16T01:31:13;95624.44;;;-1.60;82.72
42705;BME280;28342;42.594;23.414;2023-02-16T01:33:40;95656.41;;;-1.33;83.04
42705;BME280;28342;42.594;23.414;2023-02-16T01:36:08;95656.22;;;-1.31;82.69
42705;BME280;28342;42.594;23.414;2023-02-16T01:38:42;95661.41;;;-1.31;82.04
42705;BME280;28342;42.594;23.414;2023-02-16T01:44:04;95637.41;;;-1.33;82.50
42705;BME280;28342;42.594;23.414;2023-02-16T01:46:54;95631.41;;;-1.34;82.19
42705;BME280;28342;42.594;23.414;2023-02-16T01:49:22;95632.44;;;-1.48;82.53
42705;BME280;28342;42.594;23.414;2023-02-16T01:51:52;95648.63;;;-1.46;82.95
42705;BME280;28342;42.594;23.414;2023-02-16T01:56:53;95626.03;;;-1.59;83.09
42705;BME280;28342;42.594;23.414;2023-02-16T02:00:00;95636.00;;;-1.42;82.81
42705;BME280;28342;42.594;23.414;2023-02-16T02:02:38;95628.22;;;-1.56;82.76
42705;BME280;28342;42.594;23.414;2023-02-16T02:05:17;95635.66;;;-1.59;83.15
42705;BME280;28342;42.594;23.414;2023-02-16T02:08:14;95617.06;;;-1.76;83.11
42705;BME280;28342;42.594;23.414;2023-02-16T02:14:06;95613.09;;;-1.78;83.25
42705;BME280;28342;42.594;23.414;2023-02-16T02:16:33;95635.06;;;-1.61;83.05
42705;BME280;28342;42.594;23.414;2023-02-16T02:18:59;95616.63;;;-1.60;82.18
42705;BME280;28342;42.594;23.414;2023-02-16T02:24:57;95623.81;;;-1.48;81.99
42705;BME280;28342;42.594;23.414;2023-02-16T02:27:29;95618.03;;;-1.51;81.47
42705;BME280;28342;42.594;23.414;2023-02-16T02:30:07;95640.34;;;-1.23;80.95
42705;BME280;28342;42.594;23.414;2023-02-16T02:35:28;95639.78;;;-1.32;80.86
42705;BME280;28342;42.594;23.414;2023-02-16T02:43:48;95631.41;;;-1.40;80.77
42705;BME280;28342;42.594;23.414;2023-02-16T02:46:31;95627.44;;;-1.56;81.04
42705;BME280;28342;42.594;23.414;2023-02-16T02:48:57;95642.25;;;-1.57;81.22
42705;BME280;28342;42.594;23.414;2023-02-16T02:51:23;95639.50;;;-1.68;81.65
42705;BME280;28342;42.594;23.414;2023-02-16T02:54:07;95622.31;;;-1.83;81.69
42705;BME280;28342;42.594;23.414;2023-02-16T02:57:02;95620.28;;;-1.74;81.51
42705;BME280;28342;42.594;23.414;2023-02-16T02:59:59;95627.88;;;-1.79;81.61
42705;BME280;28342;42.594;23.414;2023-02-16T03:02:46;95618.28;;;-1.78;81.80
42705;BME280;28342;42.594;23.414;2023-02-16T03:05:15;95633.69;;;-1.77;81.97
42705;BME280;28342;42.594;23.414;2023-02-16T03:07:45;95635.47;;;-1.71;81.81
42705;BME280;28342;42.594;23.414;2023-02-16T03:10:20;95639.06;;;-1.72;81.80
42705;BME280;28342;42.594;23.414;2023-02-16T03:13:33;95611.09;;;-1.83;81.81
42705;BME280;28342;42.594;23.414;2023-02-16T03:16:01;95641.06;;;-1.61;81.27
42705;BME280;28342;42.594;23.414;2023-02-16T03:18:31;95649.47;;;-1.72;81.23
42705;BME280;28342;42.594;23.414;2023-02-16T03:21:18;95609.69;;;-2.05;81.63
42705;BME280;28342;42.594;23.414;2023-02-16T03:24:04;95613.50;;;-2.01;81.92
42705;BME280;28342;42.594;23.414;2023-02-16T03:26:51;95608.13;;;-2.13;82.27
42705;BME280;28342;42.594;23.414;2023-02-16T03:29:39;95610.72;;;-2.06;82.22
42705;BME280;28342;42.594;23.414;2023-02-16T03:32:08;95628.50;;;-1.97;82.07
42705;BME280;28342;42.594;23.414;2023-02-16T03:34:37;95635.50;;;-1.91;82.04
42705;BME280;28342;42.594;23.414;2023-02-16T03:37:04;95626.13;;;-1.98;82.41
42705;BME280;28342;42.594;23.414;2023-02-16T03:39:32;95638.72;;;-1.95;82.24
42705;BME280;28342;42.594;23.414;2023-02-16T03:42:19;95615.13;;;-2.14;82.42
42705;BME280;28342;42.594;23.414;2023-02-16T03:44:50;95629.91;;;-2.07;82.77
42705;BME280;28342;42.594;23.414;2023-02-16T03:47:16;95622.72;;;-2.12;82.37
42705;BME280;28342;42.594;23.414;2023-02-16T03:49:42;95597.50;;;-2.38;82.87
42705;BME280;28342;42.594;23.414;2023-02-16T03:52:09;95600.31;;;-2.33;82.60
42705;BME280;28342;42.594;23.414;2023-02-16T03:54:35;95634.28;;;-2.15;82.58
42705;BME280;28342;42.594;23.414;2023-02-16T03:57:02;95601.50;;;-2.42;82.92
42705;BME280;28342;42.594;23.414;2023-02-16T03:59:28;95615.09;;;-2.33;83.24
42705;BME280;28342;42.594;23.414;2023-02-16T04:01:57;95610.50;;;-2.25;82.28
42705;BME280;28342;42.594;23.414;2023-02-16T04:04:26;95599.31;;;-2.32;82.23
42705;BME280;28342;42.594;23.414;2023-02-16T04:07:01;95599.13;;;-2.24;81.95
42705;BME280;28342;42.594;23.414;2023-02-16T04:09:31;95619.50;;;-2.21;82.32
42705;BME280;28342;42.594;23.414;2023-02-16T04:12:39;95629.09;;;-2.01;82.35
42705;BME280;28342;42.594;23.414;2023-02-16T04:15:10;95606.72;;;-2.09;82.44
42705;BME280;28342;42.594;23.414;2023-02-16T04:17:37;95601.31;;;-2.07;82.13
42705;BME280;28342;42.594;23.414;2023-02-16T04:20:05;95620.09;;;-2.05;81.95
42705;BME280;28342;42.594;23.414;2023-02-16T04:22:31;95605.09;;;-2.03;82.05
42705;BME280;28342;42.594;23.414;2023-02-16T04:24:58;95605.53;;;-2.13;82.30
42705;BME280;28342;42.594;23.414;2023-02-16T04:27:32;95619.91;;;-2.11;82.24
42705;BME280;28342;42.594;23.414;2023-02-16T04:30:02;95602.31;;;-2.35;82.87
42705;BME280;28342;42.594;23.414;2023-02-16T04:32:29;95588.53;;;-2.42;82.81
42705;BME280;28342;42.594;23.414;2023-02-16T04:34:56;95611.91;;;-2.29;82.69
42705;BME280;28342;42.594;23.414;2023-02-16T04:37:25;95589.13;;;-2.60;83.08
42705;BME280;28342;42.594;23.414;2023-02-16T04:39:51;95616.31;;;-2.36;82.91
42705;BME280;28342;42.594;23.414;2023-02-16T04:42:17;95618.47;;;-2.46;83.60
42705;BME280;28342;42.594;23.414;2023-02-16T04:44:45;95601.91;;;-2.38;83.71
42705;BME280;28342;42.594;23.414;2023-02-16T04:47:12;95583.91;;;-2.47;83.00
42705;BME280;28342;42.594;23.414;2023-02-16T04:49:40;95625.69;;;-2.35;83.49
42705;BME280;28342;42.594;23.414;2023-02-16T04:52:11;95606.50;;;-2.47;82.96
42705;BME280;28342;42.594;23.414;2023-02-16T04:54:37;95621.31;;;-2.41;83.26
42705;BME280;28342;42.594;23.414;2023-02-16T04:57:10;95599.88;;;-2.63;83.50
42705;BME280;28342;42.594;23.414;2023-02-16T04:59:36;95617.47;;;-2.52;83.30
42705;BME280;28342;42.594;23.414;2023-02-16T05:02:04;95598.69;;;-2.74;83.22
42705;BME280;28342;42.594;23.414;2023-02-16T05:04:30;95628.44;;;-2.69;83.88
42705;BME280;28342;42.594;23.414;2023-02-16T05:06:57;95628.41;;;-2.83;84.39
42705;BME280;28342;42.594;23.414;2023-02-16T05:09:24;95635.41;;;-2.77;84.35
42705;BME280;28342;42.594;23.414;2023-02-16T05:11:51;95635.03;;;-2.74;84.56
42705;BME280;28342;42.594;23.414;2023-02-16T05:14:35;95599.81;;;-3.03;84.67
42705;BME280;28342;42.594;23.414;2023-02-16T05:17:16;95641.22;;;-2.75;84.38
42705;BME280;28342;42.594;23.414;2023-02-16T05:19:49;95616.59;;;-2.92;84.85
42705;BME280;28342;42.594;23.414;2023-02-16T05:22:16;95621.41;;;-2.82;84.53
42705;BME280;28342;42.594;23.414;2023-02-16T05:24:44;95645.03;;;-2.71;84.52
42705;BME280;28342;42.594;23.414;2023-02-16T05:27:18;95622.06;;;-2.67;83.85
42705;BME280;28342;42.594;23.414;2023-02-16T05:29:47;95635.66;;;-2.58;83.53
42705;BME280;28342;42.594;23.414;2023-02-16T05:32:15;95613.44;;;-2.81;83.73
42705;BME280;28342;42.594;23.414;2023-02-16T05:34:43;95649.81;;;-2.67;83.76
42705;BME280;28342;42.594;23.414;2023-02-16T05:37:11;95611.03;;;-2.82;83.53
42705;BME280;28342;42.594;23.414;2023-02-16T05:39:44;95623.81;;;-2.81;84.60
42705;BME280;28342;42.594;23.414;2023-02-16T05:42:11;95659.63;;;-2.63;84.50
42705;BME280;28342;42.594;23.414;2023-02-16T05:44:38;95659.03;;;-2.52;83.83
42705;BME280;28342;42.594;23.414;2023-02-16T05:47:05;95620.81;;;-2.78;83.60
42705;BME280;28342;42.594;23.414;2023-02-16T05:49:31;95655.41;;;-2.64;83.76
42705;BME280;28342;42.594;23.414;2023-02-16T05:51:57;95656.22;;;-2.70;83.82
42705;BME280;28342;42.594;23.414;2023-02-16T05:54:24;95662.00;;;-2.75;84.43
42705;BME280;28342;42.594;23.414;2023-02-16T05:56:51;95633.59;;;-2.89;84.76
42705;BME280;28342;42.594;23.414;2023-02-16T05:59:17;95634.91;;;-3.13;85.29
42705;BME280;28342;42.594;23.414;2023-02-16T06:01:44;95637.75;;;-3.02;85.07
42705;BME280;28342;42.594;23.414;2023-02-16T06:04:12;95652.56;;;-2.89;85.32
42705;BME280;28342;42.594;23.414;2023-02-16T06:06:41;95668.97;;;-2.82;85.35
42705;BME280;28342;42.594;23.414;2023-02-16T06:09:08;95660.13;;;-2.94;85.85
42705;BME280;28342;42.594;23.414;2023-02-16T06:11:34;95655.72;;;-2.93;86.14
42705;BME280;28342;42.594;23.414;2023-02-16T06:14:09;95610.16;;;-3.09;85.75
42705;BME280;28342;42.594;23.414;2023-02-16T06:16:42;95651.41;;;-2.73;85.85
42705;BME280;28342;42.594;23.414;2023-02-16T06:19:14;95657.00;;;-2.69;85.16
42705;BME280;28342;42.594;23.414;2023-02-16T06:21:41;95636.22;;;-2.76;85.23
42705;BME280;28342;42.594;23.414;2023-02-16T06:24:08;95654.41;;;-2.69;85.54
42705;BME280;28342;42.594;23.414;2023-02-16T06:26:35;95674.59;;;-2.72;86.43
42705;BME280;28342;42.594;23.414;2023-02-16T06:29:00;95680.41;;;-2.63;86.48
42705;BME280;28342;42.594;23.414;2023-02-16T06:31:30;95675.03;;;-2.48;86.15
42705;BME280;28342;42.594;23.414;2023-02-16T06:33:55;95670.28;;;-2.38;85.95
42705;BME280;28342;42.594;23.414;2023-02-16T06:36:21;95683.47;;;-2.33;86.35
42705;BME280;28342;42.594;23.414;2023-02-16T06:38:47;95687.88;;;-2.27;85.87
42705;BME280;28342;42.594;23.414;2023-02-16T06:41:25;95655.47;;;-2.31;85.73
42705;BME280;28342;42.594;23.414;2023-02-16T06:44:08;95691.31;;;-1.93;85.17
42705;BME280;28342;42.594;23.414;2023-02-16T06:46:34;95682.91;;;-1.82;84.53
42705;BME280;28342;42.594;23.414;2023-02-16T06:49:01;95694.69;;;-1.60;84.24
42705;BME280;28342;42.594;23.414;2023-02-16T06:51:28;95689.06;;;-1.43;83.97
42705;BME280;28342;42.594;23.414;2023-02-16T06:53:55;95659.84;;;-1.45;83.30
42705;BME280;28342;42.594;23.414;2023-02-16T06:56:22;95687.03;;;-1.28;82.80
42705;BME280;28342;42.594;23.414;2023-02-16T06:58:51;95689.06;;;-1.37;83.22
42705;BME280;28342;42.594;23.414;2023-02-16T07:01:22;95675.84;;;-1.35;83.44
42705;BME280;28342;42.594;23.414;2023-02-16T07:03:52;95692.22;;;-1.15;83.08
42705;BME280;28342;42.594;23.414;2023-02-16T07:06:19;95691.03;;;-1.19;82.48
42705;BME280;28342;42.594;23.414;2023-02-16T07:08:44;95695.84;;;-1.29;83.40
42705;BME280;28342;42.594;23.414;2023-02-16T07:11:11;95659.22;;;-1.41;82.95
42705;BME280;28342;42.594;23.414;2023-02-16T07:13:39;95682.19;;;-1.11;82.81
42705;BME280;28342;42.594;23.414;2023-02-16T07:16:06;95683.34;;;-1.01;83.17
42705;BME280;28342;42.594;23.414;2023-02-16T07:18:32;95666.56;;;-1.05;83.09
42705;BME280;28342;42.594;23.414;2023-02-16T07:20:58;95656.09;;;-0.98;82.90
42705;BME280;28342;42.594;23.414;2023-02-16T07:23:25;95681.41;;;-0.61;81.99
42705;BME280;28342;42.594;23.414;2023-02-16T07:25:51;95674.38;;;-0.60;82.02
42705;BME280;28342;42.594;23.414;2023-02-16T07:28:17;95661.09;;;-0.52;81.71
42705;BME280;28342;42.594;23.414;2023-02-16T07:30:43;95649.00;;;-0.40;82.03
42705;BME280;28342;42.594;23.414;2023-02-16T07:33:09;95657.69;;;-0.52;82.13
42705;BME280;28342;42.594;23.414;2023-02-16T07:35:37;95652.59;;;-0.41;82.81
42705;BME280;28342;42.594;23.414;2023-02-16T07:38:04;95622.56;;;-0.43;82.06
42705;BME280;28342;42.594;23.414;2023-02-16T07:40:30;95617.75;;;-0.46;82.20
42705;BME280;28342;42.594;23.414;2023-02-16T07:43:02;95640.00;;;-0.12;82.41
42705;BME280;28342;42.594;23.414;2023-02-16T07:45:29;95633.38;;;0.10;82.10
42705;BME280;28342;42.594;23.414;2023-02-16T07:47:57;95649.66;;;0.30;80.91
42705;BME280;28342;42.594;23.414;2023-02-16T07:50:23;95649.19;;;0.15;80.60
42705;BME280;28342;42.594;23.414;2023-02-16T07:52:48;95649.78;;;0.17;80.70
42705;BME280;28342;42.594;23.414;2023-02-16T07:55:14;95649.13;;;0.47;81.05
42705;BME280;28342;42.594;23.414;2023-02-16T07:57:39;95659.28;;;0.73;80.00
42705;BME280;28342;42.594;23.414;2023-02-16T08:00:05;95652.47;;;0.90;79.08
42705;BME280;28342;42.594;23.414;2023-02-16T08:02:32;95656.03;;;1.14;78.92
42705;BME280;28342;42.594;23.414;2023-02-16T08:04:58;95655.50;;;1.24;78.63
42705;BME280;28342;42.594;23.414;2023-02-16T08:07:29;95632.13;;;1.29;79.16
42705;BME280;28342;42.594;23.414;2023-02-16T08:09:54;95647.47;;;1.67;79.60
42705;BME280;28342;42.594;23.414;2023-02-16T08:12:22;95671.19;;;1.84;78.98
42705;BME280;28342;42.594;23.414;2023-02-16T08:14:49;95664.72;;;1.98;78.72
42705;BME280;28342;42.594;23.414;2023-02-16T08:17:14;95668.06;;;2.29;79.11
42705;BME280;28342;42.594;23.414;2023-02-16T08:19:40;95661.97;;;2.35;78.50
42705;BME280;28342;42.594;23.414;2023-02-16T08:22:07;95650.81;;;2.51;79.26
42705;BME280;28342;42.594;23.414;2023-02-16T08:24:34;95671.97;;;2.85;78.43
42705;BME280;28342;42.594;23.414;2023-02-16T08:27:02;95670.69;;;2.87;77.10
42705;BME280;28342;42.594;23.414;2023-02-16T08:29:31;95666.78;;;3.13;77.53
42705;BME280;28342;42.594;23.414;2023-02-16T08:31:58;95666.88;;;3.18;75.91
42705;BME280;28342;42.594;23.414;2023-02-16T08:34:24;95661.16;;;3.21;75.03
42705;BME280;28342;42.594;23.414;2023-02-16T08:36:55;95688.19;;;3.62;74.51
42705;BME280;28342;42.594;23.414;2023-02-16T08:39:23;95662.63;;;3.69;73.49
42705;BME280;28342;42.594;23.414;2023-02-16T08:41:51;95664.56;;;3.90;73.55
42705;BME280;28342;42.594;23.414;2023-02-16T08:44:18;95656.41;;;4.04;73.36
42705;BME280;28342;42.594;23.414;2023-02-16T08:46:45;95665.63;;;4.23;72.02
42705;BME280;28342;42.594;23.414;2023-02-16T08:49:12;95685.16;;;4.61;71.59
42705;BME280;28342;42.594;23.414;2023-02-16T08:51:44;95690.03;;;4.74;70.19
42705;BME280;28342;42.594;23.414;2023-02-16T08:54:16;95689.88;;;4.97;70.55
42705;BME280;28342;42.594;23.414;2023-02-16T08:56:43;95675.28;;;5.06;69.71
42705;BME280;28342;42.594;23.414;2023-02-16T08:59:11;95690.81;;;5.30;69.62
42705;BME280;28342;42.594;23.414;2023-02-16T09:01:37;95688.13;;;5.47;69.20
42705;BME280;28342;42.594;23.414;2023-02-16T09:04:03;95685.94;;;5.65;68.78
42705;BME280;28342;42.594;23.414;2023-02-16T09:06:31;95681.84;;;5.75;68.79
42705;BME280;28342;42.594;23.414;2023-02-16T09:09:00;95682.03;;;5.90;67.16
42705;BME280;28342;42.594;23.414;2023-02-16T09:11:25;95672.91;;;5.97;67.13
42705;BME280;28342;42.594;23.414;2023-02-16T09:13:51;95666.47;;;6.15;67.14
42705;BME280;28342;42.594;23.414;2023-02-16T09:16:20;95672.34;;;6.27;66.25
42705;BME280;28342;42.594;23.414;2023-02-16T09:18:47;95642.56;;;6.22;65.69
42705;BME280;28342;42.594;23.414;2023-02-16T09:21:15;95662.44;;;6.40;65.76
42705;BME280;28342;42.594;23.414;2023-02-16T09:23:43;95685.50;;;6.54;65.76
42705;BME280;28342;42.594;23.414;2023-02-16T09:26:11;95676.59;;;6.61;65.51
42705;BME280;28342;42.594;23.414;2023-02-16T09:28:38;95657.34;;;6.60;65.33
42705;BME280;28342;42.594;23.414;2023-02-16T09:31:26;95664.88;;;6.83;66.12
42705;BME280;28342;42.594;23.414;2023-02-16T09:34:00;95663.38;;;7.03;65.16
42705;BME280;28342;42.594;23.414;2023-02-16T09:36:26;95667.16;;;7.12;64.96
42705;BME280;28342;42.594;23.414;2023-02-16T09:38:53;95645.75;;;7.08;63.92
42705;BME280;28342;42.594;23.414;2023-02-16T09:44:22;95640.50;;;7.18;63.35
42705;BME280;28342;42.594;23.414;2023-02-16T09:46:57;95631.25;;;7.11;62.55
42705;BME280;28342;42.594;23.414;2023-02-16T09:49:41;95649.22;;;7.19;63.48
42705;BME280;28342;42.594;23.414;2023-02-16T09:54:57;95626.13;;;6.89;63.78
42705;BME280;28342;42.594;23.414;2023-02-16T10:00:39;95622.22;;;6.97;62.55
42705;BME280;28342;42.594;23.414;2023-02-16T10:05:59;95607.78;;;7.14;61.86
42705;BME280;28342;42.594;23.414;2023-02-16T10:08:39;95629.72;;;7.25;60.74
42705;BME280;28342;42.594;23.414;2023-02-16T10:14:03;95614.22;;;7.39;60.56
42705;BME280;28342;42.594;23.414;2023-02-16T10:16:36;95634.63;;;7.69;59.19
42705;BME280;28342;42.594;23.414;2023-02-16T10:19:19;95617.72;;;7.70;60.07
42705;BME280;28342;42.594;23.414;2023-02-16T10:21:54;95617.75;;;7.85;60.57
42705;BME280;28342;42.594;23.414;2023-02-16T10:24:20;95607.94;;;7.65;59.33
42705;BME280;28342;42.594;23.414;2023-02-16T10:26:53;95598.19;;;7.66;59.84
42705;BME280;28342;42.594;23.414;2023-02-16T10:29:23;95610.84;;;7.64;60.47
42705;BME280;28342;42.594;23.414;2023-02-16T10:32:01;95598.16;;;7.61;60.05
42705;BME280;28342;42.594;23.414;2023-02-16T10:37:44;95601.84;;;7.55;59.72
42705;BME280;28342;42.594;23.414;2023-02-16T10:42:51;95602.88;;;7.48;60.14
42705;BME280;28342;42.594;23.414;2023-02-16T10:45:27;95575.38;;;7.34;59.72
42705;BME280;28342;42.594;23.414;2023-02-16T10:47:53;95573.31;;;7.41;60.03
42705;BME280;28342;42.594;23.414;2023-02-16T10:50:25;95581.22;;;7.36;60.80
42705;BME280;28342;42.594;23.414;2023-02-16T10:52:59;95585.19;;;7.44;61.24
42705;BME280;28342;42.594;23.414;2023-02-16T10:55:26;95554.03;;;7.36;60.38
42705;BME280;28342;42.594;23.414;2023-02-16T10:57:56;95566.97;;;7.42;61.49
42705;BME280;28342;42.594;23.414;2023-02-16T11:03:11;95550.59;;;7.35;61.03
42705;BME280;28342;42.594;23.414;2023-02-16T11:05:39;95545.81;;;7.32;61.05
42705;BME280;28342;42.594;23.414;2023-02-16T11:08:07;95561.69;;;7.47;61.16
42705;BME280;28342;42.594;23.414;2023-02-16T11:10:47;95547.72;;;7.52;61.43
42705;BME280;28342;42.594;23.414;2023-02-16T11:13:25;95558.03;;;7.69;61.19
42705;BME280;28342;42.594;23.414;2023-02-16T11:15:57;95543.00;;;7.69;60.90
42705;BME280;28342;42.594;23.414;2023-02-16T11:18:35;95553.31;;;7.81;60.89
42705;BME280;28342;42.594;23.414;2023-02-16T11:21:05;95538.25;;;7.66;60.94
42705;BME280;28342;42.594;23.414;2023-02-16T11:23:33;95539.03;;;7.72;60.56
42705;BME280;28342;42.594;23.414;2023-02-16T11:28:41;95520.53;;;7.87;60.60
42705;BME280;28342;42.594;23.414;2023-02-16T11:36:30;95542.69;;;8.32;59.12
42705;BME280;28342;42.594;23.414;2023-02-16T11:39:25;95540.31;;;8.41;57.86
42705;BME280;28342;42.594;23.414;2023-02-16T11:42:02;95524.72;;;8.39;57.70
42705;BME280;28342;42.594;23.414;2023-02-16T11:44:38;95536.34;;;8.58;58.36
42705;BME280;28342;42.594;23.414;2023-02-16T11:47:29;95536.84;;;8.55;56.76
42705;BME280;28342;42.594;23.414;2023-02-16T11:50:23;95538.41;;;8.66;56.38
42705;BME280;28342;42.594;23.414;2023-02-16T11:53:12;95521.78;;;8.61;55.68
42705;BME280;28342;42.594;23.414;2023-02-16T11:55:44;95527.56;;;8.73;56.04
42705;BME280;28342;42.594;23.414;2023-02-16T11:58:22;95509.28;;;8.72;55.05
42705;BME280;28342;42.594;23.414;2023-02-16T12:01:39;95525.91;;;8.92;54.79
42705;BME280;28342;42.594;23.414;2023-02-16T12:12:43;95511.72;;;9.22;54.60
42705;BME280;28342;42.594;23.414;2023-02-16T12:17:59;95506.94;;;9.24;52.57
42705;BME280;28342;42.594;23.414;2023-02-16T12:23:40;95485.22;;;9.27;51.51
42705;BME280;28342;42.594;23.414;2023-02-16T12:31:32;95486.03;;;9.62;49.98
42705;BME280;28342;42.594;23.414;2023-02-16T12:35:03;95471.22;;;9.61;50.02
42705;BME280;28342;42.594;23.414;2023-02-16T12:40:15;95476.91;;;9.78;49.85
42705;BME280;28342;42.594;23.414;2023-02-16T12:45:50;95478.47;;;9.84;49.60
42705;BME280;28342;42.594;23.414;2023-02-16T12:50:58;95467.28;;;9.87;50.32
42705;BME280;28342;42.594;23.414;2023-02-16T12:53:39;95474.66;;;9.96;49.93
42705;BME280;28342;42.594;23.414;2023-02-16T12:56:11;95464.38;;;9.89;48.75
42705;BME280;28342;42.594;23.414;2023-02-16T12:58:44;95457.84;;;10.05;49.26
42705;BME280;28342;42.594;23.414;2023-02-16T13:01:32;95458.34;;;10.12;47.77
42705;BME280;28342;42.594;23.414;2023-02-16T13:06:35;95455.06;;;10.21;47.56
42705;BME280;28342;42.594;23.414;2023-02-16T13:12:06;95440.19;;;10.25;47.70
42705;BME280;28342;42.594;23.414;2023-02-16T13:14:36;95442.03;;;10.24;46.91
42705;BME280;28342;42.594;23.414;2023-02-16T13:17:34;95445.22;;;10.26;47.00
42705;BME280;28342;42.594;23.414;2023-02-16T13:20:02;95442.56;;;10.26;47.66
42705;BME280;28342;42.594;23.414;2023-02-16T13:22:45;95439.88;;;10.31;47.27
42705;BME280;28342;42.594;23.414;2023-02-16T13:44:27;95418.28;;;10.38;46.58
42705;BME280;28342;42.594;23.414;2023-02-16T13:46:57;95409.63;;;10.32;47.63
42705;BME280;28342;42.594;23.414;2023-02-16T13:51:54;95430.66;;;10.47;46.93
42705;BME280;28342;42.594;23.414;2023-02-16T13:54:39;95418.28;;;10.38;46.12
42705;BME280;28342;42.594;23.414;2023-02-16T14:02:55;95418.06;;;10.34;45.97
42705;BME280;28342;42.594;23.414;2023-02-16T14:05:25;95418.66;;;10.31;46.19
42705;BME280;28342;42.594;23.414;2023-02-16T14:08:14;95428.41;;;10.36;46.41
42705;BME280;28342;42.594;23.414;2023-02-16T14:16:10;95405.84;;;10.09;46.55
42705;BME280;28342;42.594;23.414;2023-02-16T14:23:54;95411.41;;;10.13;46.52
42705;BME280;28342;42.594;23.414;2023-02-16T14:26:21;95394.53;;;10.04;46.63
42705;BME280;28342;42.594;23.414;2023-02-16T14:29:06;95407.78;;;10.04;46.83
42705;BME280;28342;42.594;23.414;2023-02-16T14:31:44;95409.06;;;10.06;46.83
42705;BME280;28342;42.594;23.414;2023-02-16T14:34:19;95414.88;;;10.08;46.92
42705;BME280;28342;42.594;23.414;2023-02-16T14:37:40;95404.03;;;10.05;47.69
42705;BME280;28342;42.594;23.414;2023-02-16T14:43:09;95417.25;;;10.10;47.87
42705;BME280;28342;42.594;23.414;2023-02-16T14:51:26;95407.88;;;9.94;50.53
42705;BME280;28342;42.594;23.414;2023-02-16T14:56:43;95408.06;;;9.73;50.99
42705;BME280;28342;42.594;23.414;2023-02-16T14:59:25;95393.38;;;9.57;51.19
42705;BME280;28342;42.594;23.414;2023-02-16T15:01:52;95392.94;;;9.50;51.86
42705;BME280;28342;42.594;23.414;2023-02-16T15:04:32;95387.75;;;9.35;51.61
42705;BME280;28342;42.594;23.414;2023-02-16T15:07:02;95400.44;;;9.33;52.11
42705;BME280;28342;42.594;23.414;2023-02-16T15:09:31;95393.19;;;9.14;52.48
42705;BME280;28342;42.594;23.414;2023-02-16T15:12:06;95374.81;;;8.94;52.60
42705;BME280;28342;42.594;23.414;2023-02-16T15:14:52;95375.97;;;8.78;53.23
42705;BME280;28342;42.594;23.414;2023-02-16T15:17:32;95399.22;;;8.81;53.30
42705;BME280;28342;42.594;23.414;2023-02-16T15:20:08;95384.34;;;8.46;53.91
42705;BME280;28342;42.594;23.414;2023-02-16T15:22:47;95407.88;;;8.37;54.07
42705;BME280;28342;42.594;23.414;2023-02-16T15:25:26;95400.00;;;8.17;54.20
42705;BME280;28342;42.594;23.414;2023-02-16T15:30:46;95413.53;;;7.90;54.96
42705;BME280;28342;42.594;23.414;2023-02-16T15:33:26;95403.00;;;7.74;55.35
42705;BME280;28342;42.594;23.414;2023-02-16T15:35:59;95396.97;;;7.54;55.44
42705;BME280;28342;42.594;23.414;2023-02-16T15:38:34;95410.69;;;7.61;55.26